createdAt,value
2019-05-02T00:02:02.463Z,118.23
2019-05-02T00:04:31.193Z,113.93
2019-05-02T00:07:04.036Z,116.50
2019-05-02T00:09:33.917Z,121.40
2019-05-02T00:12:03.441Z,124.67
2019-05-02T00:14:32.197Z,122.93
2019-05-02T00:17:00.844Z,130.90
2019-05-02T00:19:29.483Z,116.70
2019-05-02T00:21:58.556Z,115.57
2019-05-02T00:24:27.294Z,112.10
2019-05-02T00:27:00.799Z,108.17
2019-05-02T00:29:26.264Z,109.90
2019-05-02T00:31:54.911Z,112.87
2019-05-02T00:34:25.712Z,101.53
2019-05-02T00:36:54.374Z,111.53
2019-05-02T00:39:23.085Z,107.87
2019-05-02T00:41:51.736Z,118.57
2019-05-02T00:44:22.926Z,119.03
2019-05-02T00:46:51.903Z,125.18
2019-05-02T00:49:23.277Z,139.57
2019-05-02T00:51:51.996Z,124.97
2019-05-02T00:54:24.120Z,115.70
2019-05-02T00:56:50.892Z,123.37
2019-05-02T00:59:19.519Z,134.03
2019-05-02T01:01:52.589Z,126.00
2019-05-02T01:04:23.252Z,161.00
2019-05-02T01:07:02.337Z,116.27
2019-05-02T01:09:31.960Z,132.17
2019-05-02T01:12:03.095Z,134.60
2019-05-02T01:14:31.823Z,138.33
2019-05-02T01:17:01.576Z,138.73
2019-05-02T01:19:32.142Z,161.67
2019-05-02T01:22:00.880Z,169.47
2019-05-02T01:24:34.247Z,137.73
2019-05-02T01:27:08.226Z,136.95
2019-05-02T01:29:38.456Z,135.27
2019-05-02T01:32:11.425Z,122.77
2019-05-02T01:34:41.778Z,122.50
2019-05-02T01:37:30.075Z,127.50
2019-05-02T01:40:01.424Z,135.57
2019-05-02T01:42:39.704Z,137.70
2019-05-02T01:45:00.311Z,127.93
2019-05-02T01:47:34.188Z,128.80
2019-05-02T01:50:00.292Z,122.70
2019-05-02T01:52:28.964Z,126.87
2019-05-02T01:54:57.451Z,139.63
2019-05-02T01:57:26.128Z,118.97
2019-05-02T02:00:04.307Z,127.73
2019-05-02T02:02:36.612Z,119.03
2019-05-02T02:05:07.517Z,115.43
2019-05-02T02:07:36.159Z,134.03
2019-05-02T02:10:06.565Z,124.30
2019-05-02T02:12:35.555Z,128.07
2019-05-02T02:15:05.462Z,128.43
2019-05-02T02:17:34.067Z,123.10
2019-05-02T02:20:04.351Z,140.37
2019-05-02T02:22:41.105Z,154.87
2019-05-02T02:25:26.839Z,157.60
2019-05-02T02:27:59.724Z,173.53
2019-05-02T02:30:26.611Z,234.13
2019-05-02T02:33:00.551Z,255.43
2019-05-02T02:35:31.720Z,187.37
2019-05-02T02:38:00.413Z,159.97
2019-05-02T02:40:33.534Z,142.07
2019-05-02T02:43:12.710Z,144.63
2019-05-02T02:45:40.131Z,183.63
2019-05-02T02:48:08.766Z,150.17
2019-05-02T02:50:43.203Z,176.70
2019-05-02T02:53:07.996Z,155.93
2019-05-02T02:55:36.558Z,151.37
2019-05-02T02:58:06.610Z,134.67
2019-05-02T03:00:41.524Z,154.07
2019-05-02T03:03:09.417Z,150.17
2019-05-02T03:05:38.023Z,141.90
2019-05-02T03:08:07.262Z,148.03
2019-05-02T03:10:56.649Z,163.80
2019-05-02T03:13:26.928Z,175.60
2019-05-02T03:16:07.049Z,180.63
2019-05-02T03:18:39.499Z,156.40
2019-05-02T03:21:01.222Z,143.13
2019-05-02T03:23:30.335Z,148.97
2019-05-02T03:25:59.026Z,149.63
2019-05-02T03:28:27.720Z,148.67
2019-05-02T03:30:59.378Z,164.40
2019-05-02T03:33:28.505Z,171.22
2019-05-02T03:35:58.115Z,150.67
2019-05-02T03:38:32.739Z,183.33
2019-05-02T03:41:00.134Z,156.00
2019-05-02T03:43:31.889Z,139.80
2019-05-02T03:48:35.454Z,137.60
2019-05-02T03:51:05.196Z,154.43
2019-05-02T03:53:34.544Z,140.50
2019-05-02T03:56:10.472Z,149.50
2019-05-02T03:58:35.548Z,145.10
2019-05-02T04:01:09.932Z,147.10
2019-05-02T04:03:44.499Z,126.17
2019-05-02T04:06:31.908Z,132.27
2019-05-02T04:09:05.670Z,147.73
2019-05-02T04:11:44.022Z,163.03
2019-05-02T04:14:17.787Z,162.87
2019-05-02T04:16:55.108Z,156.43
2019-05-02T04:19:36.669Z,126.77
2019-05-02T04:22:22.525Z,123.87
2019-05-02T04:25:00.772Z,135.80
2019-05-02T04:27:36.157Z,138.63
2019-05-02T04:30:11.394Z,131.67
2019-05-02T04:35:05.513Z,116.80
2019-05-02T04:37:41.179Z,117.10
2019-05-02T04:40:12.165Z,114.60
2019-05-02T04:42:50.391Z,102.23
2019-05-02T04:45:24.408Z,102.50
2019-05-02T04:50:18.453Z,116.07
2019-05-02T04:52:53.633Z,108.97
2019-05-02T04:55:30.255Z,99.57
2019-05-02T04:57:54.310Z,104.07
2019-05-02T05:00:28.947Z,93.90
2019-05-02T05:03:28.302Z,96.60
2019-05-02T05:06:06.834Z,101.57
2019-05-02T05:08:32.158Z,96.97
2019-05-02T05:13:37.390Z,88.00
2019-05-02T05:16:15.672Z,85.67
2019-05-02T05:19:10.916Z,79.07
2019-05-02T05:22:18.247Z,85.13
2019-05-02T05:24:58.233Z,76.30
2019-05-02T05:27:29.709Z,81.42
2019-05-02T05:30:07.950Z,78.52
2019-05-02T05:32:39.009Z,81.25
2019-05-02T05:35:09.025Z,77.15
2019-05-02T05:37:43.429Z,85.80
2019-05-02T05:40:13.589Z,82.67
2019-05-02T05:42:48.212Z,85.40
2019-05-02T05:45:18.078Z,79.95
2019-05-02T05:47:47.926Z,89.95
2019-05-02T05:50:22.636Z,95.20
2019-05-02T05:52:51.955Z,98.52
2019-05-02T05:55:24.225Z,98.27
2019-05-02T05:57:59.485Z,108.83
2019-05-02T06:00:23.195Z,117.80
2019-05-02T06:02:56.285Z,105.10
2019-05-02T06:05:22.416Z,110.95
2019-05-02T06:07:51.088Z,116.42
2019-05-02T06:10:20.065Z,122.13
2019-05-02T06:12:48.902Z,115.67
2019-05-02T06:15:17.484Z,103.15
2019-05-02T06:17:46.078Z,111.70
2019-05-02T06:20:15.514Z,110.15
2019-05-02T06:22:59.939Z,103.05
2019-05-02T06:25:34.611Z,103.10
2019-05-02T06:28:00.258Z,90.62
2019-05-02T06:30:30.705Z,83.37
2019-05-02T06:32:57.217Z,90.83
2019-05-02T06:35:25.811Z,95.65
2019-05-02T06:37:54.405Z,94.77
2019-05-02T06:40:23.020Z,102.62
2019-05-02T06:42:51.587Z,105.70
2019-05-02T06:45:20.480Z,101.50
2019-05-02T06:47:49.083Z,102.02
2019-05-02T06:50:17.928Z,104.65
2019-05-02T06:52:46.538Z,109.00
2019-05-02T06:55:17.757Z,102.92
2019-05-02T06:57:47.981Z,102.02
2019-05-02T07:00:17.741Z,100.00
2019-05-02T07:02:46.345Z,101.70
2019-05-02T07:05:15.100Z,97.65
2019-05-02T07:07:43.748Z,96.55
2019-05-02T07:10:13.000Z,98.50
2019-05-02T07:12:46.149Z,97.15
2019-05-02T07:15:33.642Z,89.95
2019-05-02T07:18:12.104Z,92.53
2019-05-02T07:20:54.211Z,86.05
2019-05-02T07:23:23.282Z,88.52
2019-05-02T07:25:53.987Z,86.75
2019-05-02T07:28:24.199Z,81.02
2019-05-02T07:30:54.774Z,79.50
2019-05-02T07:33:23.746Z,82.82
2019-05-02T07:35:55.323Z,80.95
2019-05-02T07:38:25.619Z,78.00
2019-05-02T07:40:54.306Z,77.40
2019-05-02T07:43:25.344Z,81.15
2019-05-02T07:45:59.728Z,81.17
2019-05-02T07:48:34.757Z,79.77
2019-05-02T07:51:26.996Z,81.12
2019-05-02T07:53:59.249Z,82.40
2019-05-02T07:56:28.443Z,80.32
2019-05-02T07:59:11.087Z,82.95
2019-05-02T08:01:44.908Z,79.05
2019-05-02T08:04:24.217Z,73.57
2019-05-02T08:06:55.121Z,72.50
2019-05-02T08:09:32.828Z,79.32
2019-05-02T08:12:10.480Z,82.33
2019-05-02T08:14:40.327Z,74.15
2019-05-02T08:17:16.125Z,70.35
2019-05-02T08:19:53.942Z,73.05
2019-05-02T08:22:25.623Z,78.15
2019-05-02T08:25:02.575Z,78.50
2019-05-02T08:27:34.739Z,77.60
2019-05-02T08:30:04.448Z,82.95
2019-05-02T08:35:09.374Z,78.33
2019-05-02T08:37:41.031Z,70.60
2019-05-02T08:40:11.047Z,68.75
2019-05-02T08:42:41.572Z,71.17
2019-05-02T08:45:10.404Z,72.92
2019-05-02T08:47:39.090Z,78.30
2019-05-02T08:50:08.863Z,73.90
2019-05-02T08:52:44.213Z,78.85
2019-05-02T08:55:13.129Z,77.35
2019-05-02T08:57:41.812Z,75.57
2019-05-02T09:00:12.847Z,81.08
2019-05-02T09:02:42.211Z,78.35
2019-05-02T09:05:14.637Z,78.35
2019-05-02T09:07:43.396Z,79.20
2019-05-02T09:10:21.076Z,77.32
2019-05-02T09:12:49.688Z,81.20
2019-05-02T09:15:18.427Z,78.07
2019-05-02T09:17:54.905Z,71.57
2019-05-02T09:20:20.759Z,73.65
2019-05-02T09:22:52.197Z,75.28
2019-05-02T09:25:18.761Z,74.73
2019-05-02T09:28:03.989Z,70.28
2019-05-02T09:30:32.790Z,72.30
2019-05-02T09:33:04.914Z,77.87
2019-05-02T09:35:32.816Z,74.40
2019-05-02T09:38:01.845Z,73.83
2019-05-02T09:40:31.912Z,77.97
2019-05-02T09:43:02.824Z,77.20
2019-05-02T09:45:37.013Z,75.13
2019-05-02T09:48:07.185Z,78.25
2019-05-02T09:50:35.488Z,82.70
2019-05-02T09:53:07.686Z,77.47
2019-05-02T09:55:36.266Z,78.05
2019-05-02T09:58:19.058Z,83.35
2019-05-02T10:00:45.903Z,83.85
2019-05-02T10:03:16.349Z,83.90
2019-05-02T10:05:45.042Z,97.87
2019-05-02T10:08:14.078Z,99.35
2019-05-02T10:10:46.011Z,102.40
2019-05-02T10:13:14.911Z,109.50
2019-05-02T10:15:43.559Z,102.02
2019-05-02T10:18:14.536Z,101.60
2019-05-02T10:20:42.940Z,104.58
2019-05-02T10:23:19.348Z,107.00
2019-05-02T10:25:48.078Z,108.85
2019-05-02T10:28:22.660Z,111.88
2019-05-02T10:30:52.581Z,111.85
2019-05-02T10:33:27.958Z,118.97
2019-05-02T10:35:54.491Z,112.72
2019-05-02T10:38:23.206Z,114.75
2019-05-02T10:41:01.329Z,116.28
2019-05-02T10:43:25.234Z,111.57
2019-05-02T10:46:01.903Z,112.65
2019-05-02T10:48:34.787Z,116.20
2019-05-02T10:51:25.631Z,114.00
2019-05-02T10:53:57.567Z,114.52
2019-05-02T10:56:32.718Z,114.72
2019-05-02T10:59:05.309Z,113.30
2019-05-02T11:01:36.255Z,109.78
2019-05-02T11:04:07.146Z,115.37
2019-05-02T11:06:45.911Z,113.10
2019-05-02T11:09:16.740Z,113.57
2019-05-02T11:11:43.237Z,107.90
2019-05-02T11:14:15.737Z,114.35
2019-05-02T11:17:08.772Z,109.27
2019-05-02T11:19:46.412Z,110.17
2019-05-02T11:22:15.069Z,106.35
2019-05-02T11:24:43.640Z,107.55
2019-05-02T11:27:12.815Z,106.30
2019-05-02T11:29:42.568Z,107.60
2019-05-02T11:32:14.474Z,99.40
2019-05-02T11:34:52.284Z,106.32
2019-05-02T11:37:22.560Z,94.28
2019-05-02T11:39:59.290Z,105.07
2019-05-02T11:42:27.245Z,100.75
2019-05-02T11:44:54.132Z,99.47
2019-05-02T11:47:26.487Z,103.20
2019-05-02T11:49:55.926Z,98.17
2019-05-02T11:52:33.089Z,96.28
2019-05-02T11:54:59.349Z,100.10
2019-05-02T11:57:30.387Z,100.18
2019-05-02T11:59:59.396Z,104.75
2019-05-02T12:02:36.353Z,96.95
2019-05-02T12:05:10.331Z,95.07
2019-05-02T12:07:38.981Z,97.95
2019-05-02T12:10:08.044Z,94.55
2019-05-02T12:12:36.689Z,91.10
2019-05-02T12:15:07.221Z,80.67
2019-05-02T12:17:37.377Z,76.33
2019-05-02T12:20:06.431Z,78.20
2019-05-02T12:22:35.136Z,82.08
2019-05-02T12:25:04.550Z,76.30
2019-05-02T12:27:34.080Z,70.22
2019-05-02T12:30:03.342Z,65.83
2019-05-02T12:32:33.423Z,64.22
2019-05-02T12:35:02.523Z,62.20
2019-05-02T12:37:32.704Z,61.65
2019-05-02T12:40:02.699Z,62.08
2019-05-02T12:42:33.082Z,67.67
2019-05-02T12:45:02.841Z,65.65
2019-05-02T12:47:31.991Z,61.37
2019-05-02T12:50:02.968Z,64.75
2019-05-02T12:52:32.075Z,63.48
2019-05-02T12:55:02.279Z,61.77
2019-05-02T12:57:32.138Z,59.23
2019-05-02T13:00:02.041Z,56.05
2019-05-02T13:02:52.547Z,51.25
2019-05-02T13:05:22.197Z,51.33
2019-05-02T13:07:56.609Z,40.78
2019-05-02T13:10:26.951Z,39.88
2019-05-02T13:12:55.574Z,42.17
2019-05-02T13:15:24.212Z,43.33
2019-05-02T13:17:52.994Z,49.18
2019-05-02T13:20:24.731Z,43.60
2019-05-02T13:23:06.160Z,40.25
2019-05-02T13:25:36.859Z,43.25
2019-05-02T13:28:05.332Z,42.83
2019-05-02T13:30:42.717Z,42.58
2019-05-02T13:33:07.600Z,39.35
2019-05-02T13:35:37.883Z,40.80
2019-05-02T13:38:06.767Z,38.28
2019-05-02T13:40:41.666Z,36.50
2019-05-02T13:43:12.344Z,34.92
2019-05-02T13:45:46.393Z,32.73
2019-05-02T13:48:15.138Z,37.28
2019-05-02T13:50:43.856Z,33.88
2019-05-02T13:53:22.560Z,32.80
2019-05-02T13:55:54.851Z,36.77
2019-05-02T13:58:28.977Z,33.80
2019-05-02T14:00:53.930Z,31.93
2019-05-02T14:03:22.732Z,32.17
2019-05-02T14:05:53.823Z,25.82
2019-05-02T14:08:27.673Z,25.68
2019-05-02T14:10:57.858Z,23.15
2019-05-02T14:13:28.551Z,27.55
2019-05-02T14:15:57.348Z,23.98
2019-05-02T14:18:28.842Z,25.88
2019-05-02T14:20:57.805Z,24.37
2019-05-02T14:23:27.152Z,24.05
2019-05-02T14:26:04.338Z,22.05
2019-05-02T14:28:36.318Z,23.40
2019-05-02T14:31:03.626Z,24.18
2019-05-02T14:33:33.865Z,24.00
2019-05-02T14:36:02.450Z,24.90
2019-05-02T14:38:33.660Z,24.02
2019-05-02T14:41:05.018Z,24.77
2019-05-02T14:43:56.110Z,24.02
2019-05-02T14:46:37.329Z,23.83
2019-05-02T14:48:56.983Z,21.75
2019-05-02T14:51:28.358Z,21.73
2019-05-02T14:54:07.970Z,19.32
2019-05-02T14:56:47.815Z,20.60
2019-05-02T14:59:19.921Z,21.17
2019-05-02T15:01:53.066Z,21.48
2019-05-02T15:04:23.439Z,22.98
2019-05-02T15:06:52.713Z,22.22
2019-05-02T15:09:26.374Z,23.50
2019-05-02T15:12:02.393Z,22.40
2019-05-02T15:14:34.184Z,23.18
2019-05-02T15:17:03.814Z,23.18
2019-05-02T15:19:33.087Z,24.90
2019-05-02T15:22:02.408Z,25.45
2019-05-02T15:24:37.544Z,24.55
2019-05-02T15:27:13.616Z,25.62
2019-05-02T15:29:41.992Z,26.68
2019-05-02T15:32:14.858Z,29.15
2019-05-02T15:35:02.383Z,31.70
2019-05-02T15:37:32.164Z,27.87
2019-05-02T15:42:32.292Z,31.48
2019-05-02T15:45:01.947Z,30.10
2019-05-02T15:47:32.088Z,31.47
2019-05-02T15:50:02.855Z,31.97
2019-05-02T15:52:32.780Z,31.85
2019-05-02T15:55:03.990Z,34.10
2019-05-02T15:57:38.034Z,37.17
2019-05-02T16:00:09.082Z,35.55
2019-05-02T16:02:38.282Z,50.05
2019-05-02T16:05:11.769Z,40.17
2019-05-02T16:07:44.963Z,39.63
2019-05-02T16:10:13.498Z,39.23
2019-05-02T16:12:43.792Z,38.15
2019-05-02T16:15:21.111Z,34.10
2019-05-02T16:17:45.359Z,33.90
2019-05-02T16:20:24.039Z,36.95
2019-05-02T16:22:55.180Z,42.98
2019-05-02T16:27:57.582Z,49.63
2019-05-02T16:30:47.278Z,44.38
2019-05-02T16:33:17.399Z,39.48
2019-05-02T16:35:51.536Z,31.35
2019-05-02T16:38:22.241Z,33.55
2019-05-02T16:40:57.056Z,35.65
2019-05-02T16:43:27.580Z,32.73
2019-05-02T16:45:56.219Z,35.52
2019-05-02T16:48:42.485Z,34.13
2019-05-02T16:51:31.066Z,34.38
2019-05-02T16:53:55.997Z,40.30
2019-05-02T16:56:26.744Z,39.63
2019-05-02T16:59:02.117Z,46.18
2019-05-02T17:01:42.455Z,53.33
2019-05-02T17:04:19.681Z,55.78
2019-05-02T17:07:06.930Z,63.33
2019-05-02T17:09:52.099Z,65.95
2019-05-02T17:12:23.673Z,62.08
2019-05-02T17:15:13.778Z,64.45
2019-05-02T17:17:46.884Z,58.23
2019-05-02T17:20:17.094Z,58.35
2019-05-02T17:22:50.486Z,54.90
2019-05-02T17:25:28.383Z,55.88
2019-05-02T17:28:01.682Z,57.08
2019-05-02T17:30:38.542Z,53.68
2019-05-02T17:33:07.097Z,54.18
2019-05-02T17:35:34.722Z,55.23
2019-05-02T17:38:05.000Z,59.63
2019-05-02T17:40:46.108Z,55.50
2019-05-02T17:43:22.697Z,63.58
2019-05-02T17:45:51.568Z,52.73
2019-05-02T17:48:20.300Z,57.60
2019-05-02T17:51:02.585Z,54.63
2019-05-02T17:53:33.931Z,49.10
2019-05-02T17:56:03.593Z,51.83
2019-05-02T17:58:34.613Z,50.93
2019-05-02T18:01:04.904Z,49.40
2019-05-02T18:03:48.237Z,57.85
2019-05-02T18:06:35.669Z,52.00
2019-05-02T18:09:08.007Z,41.83
2019-05-02T18:11:44.002Z,40.23
2019-05-02T18:14:21.244Z,38.20
2019-05-02T18:16:51.872Z,33.10
2019-05-02T18:19:21.867Z,34.50
2019-05-02T18:21:50.050Z,31.02
2019-05-02T18:24:18.750Z,26.75
2019-05-02T18:26:47.466Z,28.35
2019-05-02T18:29:16.442Z,24.98
2019-05-02T18:31:57.165Z,24.23
2019-05-02T18:34:26.024Z,25.12
2019-05-02T18:37:03.081Z,22.65
2019-05-02T18:39:34.815Z,23.47
2019-05-02T18:42:03.038Z,23.90
2019-05-02T18:44:32.614Z,24.52
2019-05-02T18:47:02.413Z,22.27
2019-05-02T18:49:32.297Z,28.20
2019-05-02T18:52:01.811Z,25.77
2019-05-02T18:54:48.725Z,26.27
2019-05-02T18:57:24.421Z,26.77
2019-05-02T19:00:02.671Z,28.73
2019-05-02T19:02:35.605Z,28.45
2019-05-02T19:05:06.014Z,27.48
2019-05-02T19:07:54.825Z,24.87
2019-05-02T19:10:23.149Z,27.10
2019-05-02T19:12:56.067Z,29.92
2019-05-02T19:15:23.544Z,25.12
2019-05-02T19:17:53.343Z,22.00
2019-05-02T19:20:32.590Z,23.50
2019-05-02T19:23:07.370Z,23.35
2019-05-02T19:25:36.095Z,19.92
2019-05-02T19:28:06.825Z,21.75
2019-05-02T19:30:39.847Z,22.07
2019-05-02T19:33:08.683Z,24.20
2019-05-02T19:35:42.112Z,21.85
2019-05-02T19:38:08.990Z,22.27
2019-05-02T19:40:37.656Z,21.80
2019-05-02T19:43:07.802Z,21.87
2019-05-02T19:45:37.037Z,23.12
2019-05-02T19:48:05.958Z,23.67
2019-05-02T19:50:43.142Z,26.48
2019-05-02T19:53:18.099Z,27.93
2019-05-02T19:55:42.701Z,32.13
2019-05-02T19:58:36.568Z,34.98
2019-05-02T20:01:05.708Z,31.20
2019-05-02T20:03:47.875Z,30.12
2019-05-02T20:06:16.660Z,31.33
2019-05-02T20:08:45.386Z,33.70
2019-05-02T20:11:14.095Z,34.50
2019-05-02T20:13:42.989Z,36.77
2019-05-02T20:16:26.051Z,31.85
2019-05-02T20:18:58.064Z,31.40
2019-05-02T20:21:34.058Z,30.97
2019-05-02T20:24:04.109Z,25.57
2019-05-02T20:26:33.171Z,27.32
2019-05-02T20:29:05.439Z,26.07
2019-05-02T20:31:34.632Z,25.95
2019-05-02T20:34:05.859Z,33.00
2019-05-02T20:36:36.123Z,32.58
2019-05-02T20:39:08.102Z,27.93
2019-05-02T20:41:36.894Z,24.60
2019-05-02T20:44:05.561Z,27.17
2019-05-02T20:46:34.271Z,29.57
2019-05-02T20:49:04.000Z,26.82
2019-05-02T20:51:32.689Z,34.53
2019-05-02T20:54:02.004Z,25.45
2019-05-02T20:56:33.815Z,31.50
2019-05-02T21:01:36.138Z,30.50
2019-05-02T21:04:04.794Z,30.12
2019-05-02T21:06:50.137Z,29.45
2019-05-02T21:09:23.097Z,28.55
2019-05-02T21:11:53.445Z,33.20
2019-05-02T21:14:22.274Z,31.90
2019-05-02T21:16:51.038Z,28.55
2019-05-02T21:19:21.726Z,29.25
2019-05-02T21:21:52.573Z,29.60
2019-05-02T21:24:22.090Z,29.75
2019-05-02T21:27:01.799Z,33.70
2019-05-02T21:29:36.261Z,33.28
2019-05-02T21:32:04.997Z,26.77
2019-05-02T21:34:34.703Z,29.20
2019-05-02T21:37:03.341Z,30.17
2019-05-02T21:39:34.671Z,32.97
2019-05-02T21:42:03.419Z,32.17
2019-05-02T21:44:32.587Z,31.60
2019-05-02T21:47:02.874Z,36.10
2019-05-02T21:49:44.948Z,32.00
2019-05-02T21:52:22.583Z,34.38
2019-05-02T21:54:53.091Z,35.47
2019-05-02T21:57:24.761Z,38.43
2019-05-02T22:02:22.575Z,36.80
2019-05-02T22:04:57.610Z,38.70
2019-05-02T22:07:32.339Z,43.87
2019-05-02T22:09:59.826Z,45.20
2019-05-02T22:12:31.790Z,40.98
2019-05-02T22:15:03.216Z,39.07
2019-05-02T22:17:32.293Z,41.08
2019-05-02T22:20:01.871Z,43.60
2019-05-02T22:22:31.751Z,47.23
2019-05-02T22:25:02.226Z,42.53
2019-05-02T22:27:47.178Z,53.13
2019-05-02T22:30:23.186Z,52.67
2019-05-02T22:32:55.675Z,48.67
2019-05-02T22:35:26.445Z,51.43
2019-05-02T22:38:05.483Z,49.53
2019-05-02T22:40:36.837Z,48.57
2019-05-02T22:43:14.652Z,51.55
2019-05-02T22:45:43.506Z,48.53
2019-05-02T22:48:14.289Z,32.57
2019-05-02T22:50:43.415Z,42.83
2019-05-02T22:53:13.898Z,35.83
2019-05-02T22:55:42.543Z,37.80
2019-05-02T22:58:13.863Z,39.27
2019-05-02T23:00:45.327Z,30.32
2019-05-02T23:03:24.150Z,33.45
2019-05-02T23:05:52.710Z,33.40
2019-05-02T23:08:21.958Z,45.25
2019-05-02T23:10:52.024Z,34.75
2019-05-02T23:13:21.984Z,28.87
2019-05-02T23:15:53.372Z,37.65
2019-05-02T23:18:28.094Z,34.78
2019-05-02T23:20:56.819Z,38.02
2019-05-02T23:23:28.137Z,35.88
2019-05-02T23:26:10.402Z,35.50
2019-05-02T23:28:42.291Z,31.62
2019-05-02T23:31:11.483Z,35.40
2019-05-02T23:34:01.842Z,31.62
2019-05-02T23:36:32.619Z,32.50
2019-05-02T23:39:05.762Z,31.52
2019-05-02T23:41:42.016Z,34.53
2019-05-02T23:44:12.301Z,36.68
2019-05-02T23:46:51.607Z,38.78
2019-05-02T23:49:22.009Z,48.27
2019-05-02T23:51:52.212Z,40.60
2019-05-02T23:54:22.056Z,45.43
2019-05-02T23:56:50.897Z,44.43
2019-05-02T23:59:19.521Z,52.10
